Vremea acum in Negrești - Romania

Vrei sa afli care e starea vremii acum in Vaslui - Romania? Dorim sa iti furnizam starea vremii pentru Vaslui - Romania. Starea vremii Vaslui - Romania pentru astazi.

Vremea acum in Negrești

Temperatura: 21.1 °C

Este: Senin
Se simte ca: 21.1 °C
Innorat: 17 %
Precipitatii: 0 %
Presiune atmosferica: 1014 hPa
Umiditate: 44%
Vizibilitate: 10 km
Vantul bate din SSE cu 27 km/h

Evolutia vremii in Negrești pe ore

Ora: 19:00
Senin
Temperatura: 18.9°C
Sansa de precipitatii: 0%
Ora Descriere Temp Se simte Precipitatii Umiditate Vant
00:00Senin12.9°11.5°0%66%SSE 15.5 KM/H
01:00Senin12.2°10.6°0%68%S 15.8 KM/H
02:00Senin11.8°10.1°0%70%S 15.8 KM/H
03:00Senin11.3°9.6°0%70%S 14.8 KM/H
04:00Senin10.7°8.9°0%71%SSE 13.3 KM/H
05:00Senin10.1°8.3°0%72%SSE 13.3 KM/H
06:00Senin9.8°7.8°0%73%SSE 13.7 KM/H
07:00Senin10.3°8.6°0%72%SSE 13 KM/H
08:00Senin12°10.1°0%63%SSE 17.6 KM/H
09:00Senin14.3°12.8°0%56%SSE 20.2 KM/H
10:00Senin16.3°16.3°0%51%S 23.4 KM/H
11:00Senin17.9°17.9°0%48%SSE 25.6 KM/H
12:00Senin19°19°0%45%SSE 26.3 KM/H
13:00Senin19.9°19.9°0%44%SSE 26.3 KM/H
14:00Senin20.7°20.8°0%43%SSE 25.9 KM/H
15:00Senin21.2°21.2°0%43%SSE 25.2 KM/H
16:00Senin21.3°21.3°0%43%SSE 25.9 KM/H
17:00Senin21.1°21.1°0%44%SSE 27 KM/H
18:00Senin20.5°20.5°0%49%SSE 25.2 KM/H
19:00Senin18.9°18.9°0%53%SSE 25.6 KM/H
20:00Senin16.9°16.9°0%59%SSE 23.4 KM/H
21:00Senin15°13.6°0%63%SSE 20.9 KM/H
22:00Senin13.8°12.2°0%67%SSE 19.8 KM/H
23:00Senin13°11.3°0%70%SSE 18.4 KM/H




tutorials